createdAt,value
2022-10-09T00:03:31.296Z,2.05
2022-10-09T00:08:34.883Z,2.00
2022-10-09T00:13:37.681Z,1.70
2022-10-09T00:23:41.681Z,1.90
2022-10-09T00:28:43.803Z,2.00
2022-10-09T00:33:45.974Z,1.60
2022-10-09T00:38:48.811Z,1.75
2022-10-09T00:49:11.878Z,1.70
2022-10-09T00:54:16.382Z,1.50
2022-10-09T00:59:19.387Z,1.40
2022-10-09T01:04:21.397Z,1.85
2022-10-09T01:09:48.727Z,1.50
2022-10-09T01:14:53.488Z,1.65
2022-10-09T01:20:32.124Z,1.80
2022-10-09T01:25:44.206Z,1.30
2022-10-09T01:30:46.958Z,0.90
2022-10-09T01:40:53.714Z,2.20
2022-10-09T01:46:20.900Z,2.40
2022-10-09T01:51:27.659Z,2.13
2022-10-09T01:56:32.627Z,1.70
2022-10-09T02:01:37.431Z,1.25
2022-10-09T02:06:41.521Z,1.37
2022-10-09T02:11:49.295Z,2.00
2022-10-09T02:17:01.216Z,1.83
2022-10-09T02:22:12.974Z,1.50
2022-10-09T02:27:16.159Z,1.90
2022-10-09T02:32:18.404Z,1.30
2022-10-09T02:37:20.472Z,1.27
2022-10-09T02:42:22.489Z,1.92
2022-10-09T02:47:24.509Z,1.58
2022-10-09T02:52:26.605Z,1.87
2022-10-09T02:57:28.779Z,1.35
2022-10-09T03:02:30.926Z,1.58
2022-10-09T03:07:33.157Z,1.77
2022-10-09T03:12:35.322Z,2.33
2022-10-09T03:17:37.390Z,1.25
2022-10-09T03:22:39.412Z,1.58
2022-10-09T03:27:41.478Z,2.67
2022-10-09T03:32:43.579Z,1.40
2022-10-09T03:37:45.607Z,0.85
2022-10-09T03:42:47.869Z,1.02
2022-10-09T03:47:50.219Z,1.80
2022-10-09T03:52:52.331Z,1.83
2022-10-09T03:57:54.496Z,1.40
2022-10-09T04:02:56.630Z,1.48
2022-10-09T04:07:58.645Z,1.27
2022-10-09T04:13:00.799Z,1.10
2022-10-09T04:18:03.370Z,1.62
2022-10-09T04:23:05.393Z,1.00
2022-10-09T04:28:07.448Z,0.85
2022-10-09T04:33:12.942Z,0.80
2022-10-09T04:38:15.337Z,2.25
2022-10-09T04:43:17.348Z,1.30
2022-10-09T04:48:19.523Z,1.35
2022-10-09T04:53:21.600Z,0.90
2022-10-09T04:58:24.016Z,1.55
2022-10-09T05:03:26.045Z,0.80
2022-10-09T05:08:28.097Z,0.80
2022-10-09T05:13:36.604Z,1.15
2022-10-09T05:18:50.559Z,0.90
2022-10-09T05:23:54.007Z,1.50
2022-10-09T05:28:56.116Z,1.50
2022-10-09T05:34:01.928Z,1.40
2022-10-09T05:39:04.236Z,1.00
2022-10-09T05:44:06.351Z,1.15
2022-10-09T05:49:12.060Z,0.93
2022-10-09T05:54:16.471Z,1.20
2022-10-09T05:59:19.806Z,1.05
2022-10-09T06:04:24.454Z,1.00
2022-10-09T06:09:26.749Z,0.90
2022-10-09T06:14:28.868Z,1.30
2022-10-09T06:19:30.903Z,1.40
2022-10-09T06:24:32.955Z,1.55
2022-10-09T06:29:35.019Z,0.85
2022-10-09T06:34:37.071Z,1.52
2022-10-09T06:39:39.133Z,1.50
2022-10-09T06:44:43.303Z,1.08
2022-10-09T06:49:45.378Z,1.80
2022-10-09T06:54:47.477Z,1.52
2022-10-09T06:59:50.043Z,2.30
2022-10-09T07:04:52.110Z,2.08
2022-10-09T07:09:54.439Z,1.85
2022-10-09T07:14:56.490Z,1.83
2022-10-09T07:19:58.572Z,2.37
2022-10-09T07:25:00.740Z,2.45
2022-10-09T07:30:02.996Z,2.45
2022-10-09T07:35:05.787Z,3.33
2022-10-09T07:45:10.238Z,2.55
2022-10-09T07:50:12.212Z,2.83
2022-10-09T07:55:14.323Z,2.83
2022-10-09T08:00:16.674Z,3.13
2022-10-09T08:05:18.739Z,3.92
2022-10-09T08:10:21.151Z,2.58
2022-10-09T08:15:23.247Z,3.47
2022-10-09T08:20:25.341Z,2.93
2022-10-09T08:25:27.498Z,2.80
2022-10-09T08:30:29.924Z,2.58
2022-10-09T08:35:34.588Z,2.70
2022-10-09T08:40:58.312Z,3.00
2022-10-09T08:46:04.961Z,2.90
2022-10-09T08:51:13.259Z,3.55
2022-10-09T08:56:15.565Z,2.72
2022-10-09T09:01:42.083Z,4.22
2022-10-09T09:06:56.458Z,2.97
2022-10-09T09:12:12.380Z,3.22
2022-10-09T09:17:33.025Z,2.87
2022-10-09T09:22:41.224Z,2.85
2022-10-09T09:27:44.015Z,3.15
2022-10-09T09:37:57.765Z,4.00
2022-10-09T09:43:04.792Z,3.15
2022-10-09T09:48:22.669Z,3.35
2022-10-09T09:53:32.337Z,3.53
2022-10-09T09:58:44.953Z,4.37
2022-10-09T10:03:52.413Z,3.65
2022-10-09T10:09:21.519Z,3.40
2022-10-09T10:14:24.239Z,3.10
2022-10-09T10:19:29.369Z,2.95
2022-10-09T10:24:46.772Z,3.40
2022-10-09T10:29:52.330Z,2.80
2022-10-09T10:35:03.907Z,2.42
2022-10-09T10:40:35.088Z,1.60
2022-10-09T10:46:27.424Z,1.77
2022-10-09T10:51:51.058Z,1.75
2022-10-09T10:57:12.488Z,1.52
2022-10-09T11:02:40.902Z,1.83
2022-10-09T11:08:04.857Z,1.55
2022-10-09T11:13:34.917Z,2.20
2022-10-09T11:19:04.215Z,1.45
2022-10-09T11:24:38.496Z,0.98
2022-10-09T11:29:45.225Z,1.15
2022-10-09T11:35:14.587Z,1.17
2022-10-09T11:40:40.089Z,1.30
2022-10-09T11:46:06.133Z,0.75
2022-10-09T11:51:29.068Z,1.02
2022-10-09T11:56:32.203Z,1.00
2022-10-09T12:01:42.892Z,1.27
2022-10-09T12:06:58.462Z,1.05
2022-10-09T12:12:07.394Z,0.77
2022-10-09T12:17:38.381Z,1.37
2022-10-09T12:22:56.433Z,1.05
2022-10-09T12:28:42.272Z,1.27
2022-10-09T12:33:53.092Z,0.98
2022-10-09T12:38:55.559Z,1.00
2022-10-09T12:43:58.320Z,1.15
2022-10-09T12:49:03.653Z,1.30
2022-10-09T12:54:09.935Z,1.73
2022-10-09T12:59:13.306Z,1.55
2022-10-09T13:04:33.559Z,1.42
2022-10-09T13:09:39.250Z,2.03
2022-10-09T13:14:51.975Z,0.88
2022-10-09T13:19:56.088Z,1.10
2022-10-09T13:24:59.261Z,0.93
2022-10-09T13:30:02.130Z,1.58
2022-10-09T13:35:04.541Z,1.20
2022-10-09T13:40:11.726Z,1.30
2022-10-09T13:45:13.821Z,0.88
2022-10-09T13:50:16.540Z,0.80
2022-10-09T13:55:19.133Z,1.40
2022-10-09T14:00:21.171Z,1.08
2022-10-09T14:05:23.731Z,1.20
2022-10-09T14:10:26.738Z,1.25
2022-10-09T14:15:28.807Z,1.55
2022-10-09T14:20:30.924Z,1.40
2022-10-09T14:25:34.733Z,1.02
2022-10-09T14:30:40.773Z,1.60
2022-10-09T14:35:42.873Z,1.27
2022-10-09T14:40:45.583Z,1.20
2022-10-09T14:45:47.628Z,1.35
2022-10-09T14:50:49.695Z,1.20
2022-10-09T14:55:51.815Z,1.23
2022-10-09T15:00:53.838Z,1.23
2022-10-09T15:06:05.399Z,1.35
2022-10-09T15:11:08.503Z,1.40
2022-10-09T15:16:15.507Z,1.02
2022-10-09T15:21:29.372Z,1.33
2022-10-09T15:26:33.388Z,1.80
2022-10-09T15:31:41.407Z,0.98
2022-10-09T15:36:45.661Z,2.12
2022-10-09T15:41:47.861Z,1.02
2022-10-09T15:46:50.058Z,1.15
2022-10-09T15:51:52.214Z,1.00
2022-10-09T15:56:54.578Z,1.77
2022-10-09T16:01:56.679Z,1.35
2022-10-09T16:06:58.783Z,1.42
2022-10-09T16:12:01.434Z,1.52
2022-10-09T16:17:05.524Z,1.20
2022-10-09T16:22:09.887Z,1.58
2022-10-09T16:27:12.004Z,1.40
2022-10-09T16:32:14.205Z,1.00
2022-10-09T16:37:16.382Z,1.52
2022-10-09T16:42:18.607Z,0.80
2022-10-09T16:47:20.686Z,1.27
2022-10-09T16:52:22.835Z,1.30
2022-10-09T16:57:25.037Z,1.30
2022-10-09T17:02:27.233Z,1.92
2022-10-09T17:07:30.247Z,1.50
2022-10-09T17:12:32.408Z,1.30
2022-10-09T17:17:34.571Z,1.37
2022-10-09T17:22:36.648Z,3.25
2022-10-09T17:27:38.703Z,7.87
2022-10-09T17:32:40.752Z,11.00
2022-10-09T17:37:42.852Z,13.03
2022-10-09T17:42:44.933Z,11.60
2022-10-09T17:47:47.164Z,11.02
2022-10-09T17:52:49.447Z,7.13
2022-10-09T17:57:53.469Z,5.05
2022-10-09T18:02:55.498Z,3.15
2022-10-09T18:07:57.535Z,2.87
2022-10-09T18:12:59.591Z,2.67
2022-10-09T18:18:01.899Z,3.47
2022-10-09T18:23:05.051Z,3.97
2022-10-09T18:28:07.439Z,2.33
2022-10-09T18:33:09.667Z,3.37
2022-10-09T18:38:11.741Z,2.47
2022-10-09T18:43:13.778Z,2.40
2022-10-09T18:48:17.048Z,3.53
2022-10-09T18:53:19.182Z,4.05
2022-10-09T18:58:22.690Z,2.30
2022-10-09T19:03:24.728Z,2.70
2022-10-09T19:08:27.467Z,1.50
2022-10-09T19:18:32.040Z,1.17
2022-10-09T19:23:34.096Z,1.35
2022-10-09T19:28:38.427Z,1.30
2022-10-09T19:33:43.146Z,2.10
2022-10-09T19:38:45.925Z,2.00
2022-10-09T19:43:47.926Z,2.05
2022-10-09T19:48:50.584Z,2.67
2022-10-09T19:53:53.394Z,2.53
2022-10-09T20:04:00.578Z,2.23
2022-10-09T20:09:03.313Z,2.30
2022-10-09T20:14:05.701Z,3.03
2022-10-09T20:19:08.042Z,2.87
2022-10-09T20:24:10.221Z,2.08
2022-10-09T20:29:12.321Z,2.37
2022-10-09T20:34:16.718Z,2.00
2022-10-09T20:39:21.161Z,1.45
2022-10-09T20:44:23.486Z,1.50
2022-10-09T20:49:25.624Z,2.08
2022-10-09T20:54:27.939Z,2.00
2022-10-09T20:59:30.327Z,2.40
2022-10-09T21:04:32.589Z,3.05
2022-10-09T21:09:34.590Z,2.75
2022-10-09T21:14:36.793Z,2.20
2022-10-09T21:19:38.816Z,3.08
2022-10-09T21:24:40.847Z,2.43
2022-10-09T21:29:42.897Z,2.90
2022-10-09T21:34:45.648Z,3.80
2022-10-09T21:44:49.595Z,3.20
2022-10-09T21:49:51.837Z,2.70
2022-10-09T21:54:53.952Z,3.92
2022-10-09T21:59:56.054Z,2.67
2022-10-09T22:04:58.083Z,2.85
2022-10-09T22:10:00.459Z,3.50
2022-10-09T22:15:02.522Z,2.83
2022-10-09T22:20:05.016Z,3.47
2022-10-09T22:25:07.698Z,2.53
2022-10-09T22:30:10.684Z,3.28
2022-10-09T22:35:12.723Z,2.50
2022-10-09T22:40:14.864Z,2.90
2022-10-09T22:45:16.879Z,2.17
2022-10-09T22:50:18.901Z,2.63
2022-10-09T22:55:20.941Z,2.83
2022-10-09T23:00:22.955Z,3.07
2022-10-09T23:05:25.001Z,2.60
2022-10-09T23:10:27.120Z,2.30
2022-10-09T23:15:29.123Z,2.80
2022-10-09T23:20:35.792Z,2.93
2022-10-09T23:25:41.823Z,2.77
2022-10-09T23:30:43.834Z,2.33
2022-10-09T23:35:45.972Z,2.80
2022-10-09T23:40:59.034Z,2.00
2022-10-09T23:46:03.196Z,3.03
2022-10-09T23:51:06.536Z,2.25
2022-10-09T23:56:29.897Z,1.95
